Time;durP1;ratioP1;P1;durP2;ratioP2;P2;SDS_P1;SDS_P2;PMS_P1;PMS_P2;Temp;Humidity;BMP_temperature;BMP_pressure;BME280_temperature;BME280_humidity;BME280_pressure;Samples;Min_cycle;Max_cycle;Signal;HPM_P1;HPM_P2
2022/06/02 00:00:11;;;;;;;4.90;4.50;;;13.10;1.00;;;;;;6162711;28;20264;-57
2022/06/02 00:03:25;;;;;;;5.57;5.17;;;13.10;1.00;;;;;;6180232;28;20341;-56
2022/06/02 00:06:40;;;;;;;5.10;4.80;;;13.10;1.00;;;;;;6191708;28;20236;-57
2022/06/02 00:09:57;;;;;;;4.67;4.57;;;13.00;1.00;;;;;;6193056;28;20529;-54
2022/06/02 00:13:08;;;;;;;5.00;4.90;;;13.10;1.00;;;;;;6168010;28;20683;-55
2022/06/02 00:16:27;;;;;;;4.97;4.77;;;13.00;1.00;;;;;;6174030;28;20232;-55
2022/06/02 00:19:42;;;;;;;4.60;4.50;;;13.00;1.00;;;;;;6179563;28;20239;-56
2022/06/02 00:22:54;;;;;;;5.07;4.87;;;13.00;1.00;;;;;;6159577;28;20348;-57
2022/06/02 00:26:04;;;;;;;4.87;4.60;;;13.00;1.00;;;;;;6161525;28;20816;-56
2022/06/02 00:29:16;;;;;;;5.40;5.20;;;13.00;1.00;;;;;;6161120;28;20323;-55
2022/06/02 00:32:24;;;;;;;5.27;5.07;;;13.00;1.00;;;;;;6161446;28;20268;-55
2022/06/02 00:35:34;;;;;;;4.70;4.60;;;13.10;1.00;;;;;;6197542;28;20251;-55
2022/06/02 00:38:39;;;;;;;4.83;4.63;;;13.00;1.00;;;;;;6196754;28;20243;-56
2022/06/02 00:41:50;;;;;;;4.70;4.60;;;13.00;1.00;;;;;;6185322;28;20335;-55
2022/06/02 00:44:56;;;;;;;4.70;4.60;;;13.00;1.00;;;;;;6170611;28;20770;-55
2022/06/02 00:48:23;;;;;;;4.57;4.47;;;13.00;1.00;;;;;;6160832;28;20548;-54
2022/06/02 00:51:38;;;;;;;4.37;4.27;;;12.90;1.00;;;;;;6159758;28;20237;-56
2022/06/02 00:58:25;;;;;;;4.10;4.00;;;12.90;1.00;;;;;;6160236;28;20575;-55
2022/06/02 01:01:31;;;;;;;4.07;3.97;;;12.90;1.00;;;;;;6160732;28;20311;-55
2022/06/02 01:04:41;;;;;;;4.00;3.90;;;12.90;1.00;;;;;;6178575;28;20244;-56
2022/06/02 01:07:55;;;;;;;3.97;3.87;;;12.80;1.00;;;;;;6182278;28;20741;-55
2022/06/02 01:11:10;;;;;;;4.60;4.40;;;12.80;1.00;;;;;;6182167;28;20228;-56
2022/06/02 01:14:26;;;;;;;3.83;3.83;;;12.80;1.00;;;;;;6184558;28;20611;-56
2022/06/02 01:17:44;;;;;;;4.27;4.17;;;12.60;1.00;;;;;;6182097;28;20281;-55
2022/06/02 01:21:04;;;;;;;4.00;3.90;;;12.60;1.00;;;;;;6182223;28;20238;-55
2022/06/02 01:24:36;;;;;;;4.87;4.67;;;12.60;1.00;;;;;;6184949;28;20331;-55
2022/06/02 01:28:13;;;;;;;3.87;3.77;;;12.50;1.00;;;;;;6162284;28;20628;-55
2022/06/02 01:31:25;;;;;;;4.30;4.20;;;12.50;1.00;;;;;;6159029;28;20245;-55
2022/06/02 01:34:47;;;;;;;5.07;4.70;;;12.40;1.00;;;;;;6186295;28;20224;-56
2022/06/02 01:37:57;;;;;;;4.80;4.60;;;12.30;1.00;;;;;;6165514;28;20241;-56
2022/06/02 01:41:09;;;;;;;4.53;4.33;;;12.30;1.00;;;;;;6186953;28;20339;-56
2022/06/02 01:44:17;;;;;;;4.63;4.50;;;12.30;1.00;;;;;;6183614;28;20245;-56
2022/06/02 01:47:31;;;;;;;5.10;5.00;;;12.20;1.00;;;;;;6182977;28;20244;-55
2022/06/02 01:50:44;;;;;;;5.10;5.00;;;12.10;1.00;;;;;;6172516;28;20621;-55
2022/06/02 01:53:57;;;;;;;4.60;4.50;;;12.10;1.00;;;;;;6159659;28;20335;-55
2022/06/02 01:57:10;;;;;;;4.60;4.40;;;12.00;1.00;;;;;;6159027;28;20820;-56
2022/06/02 02:00:16;;;;;;;5.50;5.30;;;12.00;1.00;;;;;;6159851;28;20239;-56
2022/06/02 02:03:26;;;;;;;5.30;5.10;;;11.90;1.00;;;;;;6174570;28;20971;-54
2022/06/02 02:06:38;;;;;;;5.23;5.03;;;11.80;1.00;;;;;;6186862;28;20616;-55
2022/06/02 02:09:55;;;;;;;5.40;5.20;;;11.70;1.00;;;;;;6183324;28;20327;-56
2022/06/02 02:13:06;;;;;;;4.90;4.80;;;11.70;1.00;;;;;;6175593;28;20658;-55
2022/06/02 02:16:24;;;;;;;4.93;4.83;;;11.70;1.00;;;;;;6186000;28;20329;-60
2022/06/02 02:19:36;;;;;;;5.00;4.90;;;11.70;1.00;;;;;;6183851;28;20236;-57
2022/06/02 02:22:45;;;;;;;4.83;4.73;;;11.60;1.00;;;;;;6162124;28;20320;-56
2022/06/02 02:25:53;;;;;;;5.33;5.23;;;11.60;1.00;;;;;;6159043;28;20302;-56
2022/06/02 02:29:05;;;;;;;4.80;4.60;;;11.60;1.00;;;;;;6158016;28;20600;-56
2022/06/02 02:32:19;;;;;;;4.87;4.67;;;11.60;1.00;;;;;;6158716;28;20722;-56
2022/06/02 02:35:28;;;;;;;4.83;4.63;;;11.60;1.00;;;;;;6192951;28;20328;-55
2022/06/02 02:38:41;;;;;;;5.80;5.30;;;11.50;1.00;;;;;;6172439;28;20235;-56
2022/06/02 02:41:49;;;;;;;5.60;5.30;;;11.50;1.00;;;;;;6176386;28;20232;-55
2022/06/02 02:45:08;;;;;;;5.03;4.93;;;11.40;1.00;;;;;;6183025;28;20240;-55
2022/06/02 02:48:19;;;;;;;5.13;5.03;;;11.40;1.00;;;;;;6181645;28;20288;-56
2022/06/02 02:51:34;;;;;;;5.50;5.10;;;11.40;1.00;;;;;;6152752;28;21093;-56
2022/06/02 02:54:42;;;;;;;4.87;4.77;;;11.30;1.00;;;;;;6183567;28;20244;-56
2022/06/02 02:57:54;;;;;;;5.03;4.83;;;11.30;1.00;;;;;;6180396;28;20771;-56
2022/06/02 03:01:05;;;;;;;4.60;4.50;;;11.30;1.00;;;;;;6159000;28;20232;-56
2022/06/02 03:04:20;;;;;;;5.33;5.13;;;11.20;1.00;;;;;;6172374;28;20231;-56
2022/06/02 03:07:24;;;;;;;4.60;4.50;;;11.20;1.00;;;;;;6181214;28;20390;-56
2022/06/02 03:10:34;;;;;;;4.60;4.50;;;11.30;1.00;;;;;;6194845;28;20236;-56
2022/06/02 03:13:49;;;;;;;4.53;4.43;;;11.20;1.00;;;;;;6162293;28;20442;-56
2022/06/02 03:16:59;;;;;;;4.50;4.40;;;11.20;1.00;;;;;;6163081;28;20324;-54
2022/06/02 03:20:08;;;;;;;4.80;4.70;;;11.20;1.50;;;;;;6169815;28;20264;-56
2022/06/02 03:23:26;;;;;;;4.83;4.73;;;11.10;13.80;;;;;;6187038;28;20256;-56
2022/06/02 03:26:40;;;;;;;4.90;4.80;;;11.10;13.80;;;;;;6187206;28;20247;-56
2022/06/02 03:29:59;;;;;;;4.93;4.83;;;11.10;13.80;;;;;;6171115;28;20236;-56
2022/06/02 03:33:14;;;;;;;5.13;5.03;;;11.10;20.80;;;;;;6159704;28;20318;-55
2022/06/02 03:36:32;;;;;;;5.53;5.33;;;11.10;32.50;;;;;;6191362;28;20487;-55
2022/06/02 03:39:49;;;;;;;5.50;5.40;;;11.00;38.30;;;;;;6183729;28;20752;-55
2022/06/02 03:43:03;;;;;;;5.33;5.10;;;11.00;44.20;;;;;;6183220;28;20267;-56
2022/06/02 03:46:20;;;;;;;5.03;4.63;;;11.00;43.70;;;;;;6181616;28;20225;-55
2022/06/02 03:49:41;;;;;;;5.73;5.30;;;11.10;48.90;;;;;;6184721;28;20248;-55
2022/06/02 03:53:00;;;;;;;5.10;5.00;;;11.10;51.30;;;;;;6179465;28;20259;-56
2022/06/02 03:56:15;;;;;;;5.73;5.53;;;11.20;51.30;;;;;;6189520;28;20243;-55
2022/06/02 03:59:38;;;;;;;5.50;5.37;;;11.20;52.40;;;;;;6182412;28;20228;-56
2022/06/02 04:02:45;;;;;;;5.20;5.00;;;11.30;48.90;;;;;;6157773;28;20524;-55
2022/06/02 04:06:00;;;;;;;5.43;5.17;;;11.40;47.70;;;;;;6188736;28;20254;-56
2022/06/02 04:09:21;;;;;;;5.50;5.27;;;11.50;44.20;;;;;;6194186;28;20533;-56
2022/06/02 04:16:13;;;;;;;5.53;5.30;;;11.50;39.30;;;;;;6152901;28;20372;-56
2022/06/02 04:23:17;;;;;;;5.60;5.43;;;11.60;32.10;;;;;;6189640;28;20227;-56
2022/06/02 04:26:30;;;;;;;4.70;4.60;;;11.70;31.90;;;;;;6187371;28;20718;-55
2022/06/02 04:29:49;;;;;;;5.10;4.90;;;11.80;26.00;;;;;;6191942;28;20236;-54
2022/06/02 04:33:00;;;;;;;5.87;5.47;;;11.80;25.50;;;;;;6187222;28;20267;-56
2022/06/02 04:36:13;;;;;;;5.50;5.20;;;11.80;22.50;;;;;;6180322;28;20250;-56
2022/06/02 04:39:25;;;;;;;5.37;4.97;;;11.90;22.30;;;;;;6195957;28;20227;-55
2022/06/02 04:42:38;;;;;;;5.80;5.57;;;12.00;20.80;;;;;;6190839;28;20631;-56
2022/06/02 04:45:56;;;;;;;5.40;5.20;;;12.20;14.60;;;;;;6171795;28;20334;-56
2022/06/02 04:49:08;;;;;;;5.47;5.17;;;12.30;14.60;;;;;;6193744;28;20697;-56
2022/06/02 04:52:20;;;;;;;6.13;5.93;;;12.30;14.70;;;;;;6185867;28;20255;-55
2022/06/02 04:55:32;;;;;;;6.07;5.87;;;12.40;10.70;;;;;;6192328;28;20244;-56
2022/06/02 04:58:42;;;;;;;7.33;6.67;;;12.40;1.00;;;;;;6197187;28;20653;-56
2022/06/02 05:01:57;;;;;;;6.93;6.43;;;12.40;3.60;;;;;;6198876;28;20692;-56
2022/06/02 05:05:13;;;;;;;7.33;6.93;;;12.30;14.60;;;;;;6174857;28;20363;-57
2022/06/02 05:08:35;;;;;;;7.47;6.93;;;12.30;14.70;;;;;;6194621;28;20246;-55
2022/06/02 05:11:48;;;;;;;6.97;6.67;;;12.40;14.70;;;;;;6181510;28;20320;-56
2022/06/02 05:15:02;;;;;;;6.90;6.60;;;12.40;14.70;;;;;;6194012;28;20534;-56
2022/06/02 05:18:26;;;;;;;7.23;6.93;;;12.50;8.80;;;;;;6188324;28;20286;-55
2022/06/02 05:21:51;;;;;;;7.80;7.40;;;12.50;7.80;;;;;;6184540;28;20240;-57
2022/06/02 05:25:18;;;;;;;7.67;7.27;;;12.50;5.70;;;;;;6182135;28;20232;-58
2022/06/02 05:28:55;;;;;;;7.47;6.97;;;12.60;6.50;;;;;;6182815;28;20390;-57
2022/06/02 05:32:13;;;;;;;8.10;7.70;;;12.60;8.20;;;;;;6190320;28;20624;-55
2022/06/02 05:35:38;;;;;;;6.83;6.37;;;12.60;5.00;;;;;;6188599;28;20753;-55
2022/06/02 05:38:56;;;;;;;8.23;7.43;;;12.70;8.10;;;;;;6177610;28;20276;-55
2022/06/02 05:42:11;;;;;;;7.87;7.37;;;12.80;2.70;;;;;;6178981;28;20260;-56
2022/06/02 05:45:27;;;;;;;9.07;8.57;;;12.70;1.60;;;;;;6189567;28;20422;-56
2022/06/02 05:48:47;;;;;;;8.73;8.23;;;12.80;1.00;;;;;;6193797;28;20247;-56
2022/06/02 05:52:02;;;;;;;8.93;8.43;;;12.80;1.00;;;;;;6185218;28;20262;-56
2022/06/02 05:55:39;;;;;;;9.00;8.50;;;12.80;1.00;;;;;;6189665;28;20255;-56
2022/06/02 05:59:10;;;;;;;9.13;8.53;;;13.00;1.00;;;;;;6173490;28;20345;-56
2022/06/02 06:02:34;;;;;;;7.87;7.37;;;13.60;1.00;;;;;;6192547;28;20318;-56
2022/06/02 06:05:41;;;;;;;8.87;8.10;;;14.10;1.00;;;;;;6192673;28;20860;-57
2022/06/02 06:09:01;;;;;;;7.60;7.30;;;14.60;1.00;;;;;;6191984;28;20301;-58
2022/06/02 06:12:28;;;;;;;8.30;7.90;;;14.80;1.00;;;;;;6185416;28;20240;-56
2022/06/02 06:15:39;;;;;;;8.87;8.27;;;15.20;1.00;;;;;;6179508;28;20362;-57
2022/06/02 06:18:58;;;;;;;8.67;8.13;;;15.30;1.00;;;;;;6192997;28;20239;-56
2022/06/02 06:22:19;;;;;;;9.47;8.77;;;15.30;1.00;;;;;;6189277;28;20714;-57
2022/06/02 06:25:42;;;;;;;8.90;8.33;;;15.20;1.00;;;;;;6188756;28;20736;-56
2022/06/02 06:29:12;;;;;;;8.80;8.13;;;15.20;1.00;;;;;;6197320;28;20243;-57
2022/06/02 06:32:22;;;;;;;9.03;7.93;;;15.20;1.00;;;;;;6175936;28;20238;-57
2022/06/02 06:35:37;;;;;;;8.43;7.93;;;15.60;1.00;;;;;;6172722;28;20856;-56
2022/06/02 06:39:03;;;;;;;8.73;8.23;;;15.70;1.00;;;;;;6175679;28;20508;-57
2022/06/02 06:42:28;;;;;;;9.93;9.17;;;15.80;1.00;;;;;;6189157;28;20787;-57
2022/06/02 06:45:37;;;;;;;8.50;8.00;;;15.90;1.00;;;;;;6192870;28;20327;-56
2022/06/02 06:48:44;;;;;;;8.80;8.30;;;16.30;1.00;;;;;;6195636;28;20274;-55
2022/06/02 06:52:14;;;;;;;9.03;8.53;;;16.30;1.00;;;;;;6191148;28;20297;-55
2022/06/02 06:55:30;;;;;;;10.03;9.33;;;16.20;1.00;;;;;;6190596;28;20232;-56
2022/06/02 06:58:49;;;;;;;9.97;9.17;;;16.00;1.00;;;;;;6186127;28;20310;-62
2022/06/02 07:02:02;;;;;;;10.43;9.70;;;16.10;1.00;;;;;;6190464;28;20740;-56
2022/06/02 07:05:10;;;;;;;10.33;9.67;;;16.10;1.00;;;;;;6182326;28;20725;-56
2022/06/02 07:08:19;;;;;;;9.33;8.73;;;16.20;1.00;;;;;;6193064;28;20705;-57
2022/06/02 07:14:58;;;;;;;9.63;9.13;;;16.70;1.00;;;;;;6179892;28;20231;-56
2022/06/02 07:18:15;;;;;;;10.27;9.57;;;16.80;1.00;;;;;;6191111;28;20243;-56
2022/06/02 07:21:27;;;;;;;9.03;8.47;;;16.40;1.00;;;;;;6181976;28;20861;-57
2022/06/02 07:24:39;;;;;;;9.90;9.07;;;16.30;1.00;;;;;;6192060;28;20323;-56
2022/06/02 07:27:50;;;;;;;9.57;8.83;;;16.20;1.00;;;;;;6181066;28;20292;-57
2022/06/02 07:31:13;;;;;;;9.67;8.97;;;16.40;1.00;;;;;;6187402;28;20503;-57
2022/06/02 07:34:34;;;;;;;8.93;8.40;;;16.70;1.00;;;;;;6190421;28;20369;-56
2022/06/02 07:37:44;;;;;;;8.30;7.80;;;17.00;1.00;;;;;;6181472;28;20811;-57
2022/06/02 07:41:01;;;;;;;8.30;7.70;;;17.10;1.00;;;;;;6191703;28;20236;-56
2022/06/02 07:44:30;;;;;;;8.27;7.77;;;17.10;1.00;;;;;;6195345;28;20484;-56
2022/06/02 07:48:07;;;;;;;9.03;8.37;;;17.00;1.00;;;;;;6186125;28;20232;-57
2022/06/02 07:51:18;;;;;;;7.20;6.70;;;16.80;1.00;;;;;;6189048;28;20745;-57
2022/06/02 07:54:33;;;;;;;6.27;5.87;;;16.60;1.00;;;;;;6198391;28;20744;-56
2022/06/02 07:57:47;;;;;;;6.13;5.53;;;16.40;1.00;;;;;;6203356;28;20500;-56
2022/06/02 08:00:58;;;;;;;6.10;5.70;;;16.40;1.00;;;;;;6188317;28;20249;-57
2022/06/02 08:04:13;;;;;;;5.43;5.13;;;16.40;1.00;;;;;;6172920;28;20302;-56
2022/06/02 08:07:25;;;;;;;6.00;5.43;;;16.40;1.00;;;;;;6186760;28;20232;-56
2022/06/02 08:10:41;;;;;;;5.70;5.00;;;16.60;1.00;;;;;;6182606;28;20709;-57
2022/06/02 08:13:58;;;;;;;5.57;5.27;;;16.70;1.00;;;;;;6190281;28;20324;-58
2022/06/02 08:17:16;;;;;;;5.90;5.40;;;16.60;1.00;;;;;;6190172;28;20803;-57
2022/06/02 08:20:36;;;;;;;6.10;5.50;;;16.50;1.00;;;;;;6191604;28;20381;-56
2022/06/02 08:24:01;;;;;;;5.13;4.80;;;16.40;1.00;;;;;;6185120;28;20504;-57
2022/06/02 08:27:27;;;;;;;5.43;5.00;;;16.30;1.00;;;;;;6179624;28;20258;-57
2022/06/02 08:30:41;;;;;;;4.30;4.10;;;16.30;1.00;;;;;;6189177;28;20391;-57
2022/06/02 08:33:51;;;;;;;4.80;4.30;;;16.30;1.00;;;;;;6179101;28;20232;-56
2022/06/02 08:37:04;;;;;;;4.20;4.00;;;16.60;1.00;;;;;;6180098;28;20757;-56
2022/06/02 08:40:30;;;;;;;4.70;4.00;;;16.80;1.00;;;;;;6192108;28;20585;-56
2022/06/02 08:44:04;;;;;;;4.17;4.07;;;16.90;1.00;;;;;;6186138;28;20244;-57
2022/06/02 08:47:29;;;;;;;3.90;3.70;;;17.10;1.00;;;;;;6181296;28;20255;-57
2022/06/02 08:51:03;;;;;;;3.53;3.23;;;17.50;1.00;;;;;;6188900;28;20244;-57
2022/06/02 08:54:43;;;;;;;3.73;3.43;;;17.60;1.00;;;;;;6173564;28;20232;-55
2022/06/02 08:58:35;;;;;;;3.73;3.30;;;17.60;1.00;;;;;;6194270;28;20807;-56
2022/06/02 09:01:59;;;;;;;4.00;3.80;;;17.50;1.00;;;;;;6184367;28;20236;-55
2022/06/02 09:05:31;;;;;;;4.63;4.30;;;17.60;1.00;;;;;;6179981;28;20221;-57
2022/06/02 09:08:58;;;;;;;3.57;3.47;;;17.70;1.00;;;;;;6165480;28;20645;-57
2022/06/02 09:12:15;;;;;;;4.33;3.53;;;17.70;1.00;;;;;;6186551;28;20435;-56
2022/06/02 09:15:44;;;;;;;3.87;3.60;;;17.70;1.00;;;;;;6187554;28;20275;-57
2022/06/02 09:19:02;;;;;;;3.33;3.33;;;17.70;1.00;;;;;;6176528;28;20235;-57
2022/06/02 09:22:33;;;;;;;3.83;3.50;;;17.40;1.00;;;;;;6178975;28;20220;-56
2022/06/02 09:26:00;;;;;;;3.17;3.03;;;17.50;1.00;;;;;;6193054;28;20240;-60
2022/06/02 09:29:20;;;;;;;3.23;3.00;;;17.50;1.00;;;;;;6188722;28;20318;-55
2022/06/02 09:32:40;;;;;;;3.07;2.97;;;17.50;1.00;;;;;;6187219;28;20308;-55
2022/06/02 09:35:50;;;;;;;2.77;2.60;;;17.50;1.00;;;;;;6182626;28;20326;-56
2022/06/02 09:39:05;;;;;;;4.93;3.13;;;17.90;1.00;;;;;;6194292;28;20626;-57
2022/06/02 09:42:29;;;;;;;4.53;3.40;;;18.10;1.00;;;;;;6181129;28;20664;-55
2022/06/02 09:45:46;;;;;;;2.90;2.77;;;17.90;1.00;;;;;;6191226;28;20248;-55
2022/06/02 09:49:46;;;;;;;2.93;2.83;;;17.90;1.00;;;;;;6182589;28;20621;-56
2022/06/02 09:53:25;;;;;;;2.80;2.70;;;18.00;1.00;;;;;;6148516;28;20355;-55
2022/06/02 10:00:51;;;;;;;2.60;2.50;;;17.50;1.00;;;;;;6119679;28;20234;-55
2022/06/02 10:04:11;;;;;;;2.67;2.47;;;17.50;1.00;;;;;;6154222;28;20233;-55
2022/06/02 10:07:41;;;;;;;2.60;2.40;;;17.60;1.00;;;;;;6180087;28;20324;-55
2022/06/02 10:10:56;;;;;;;2.53;2.43;;;17.70;1.00;;;;;;6185483;28;20544;-56
2022/06/02 10:14:16;;;;;;;2.60;2.60;;;17.90;1.00;;;;;;6176390;28;20247;-56
2022/06/02 10:17:45;;;;;;;2.50;2.40;;;18.20;1.00;;;;;;6186322;28;20466;-55
2022/06/02 10:21:07;;;;;;;2.40;2.40;;;18.50;1.00;;;;;;6175640;28;20342;-55
2022/06/02 10:24:48;;;;;;;2.50;2.40;;;18.70;1.00;;;;;;6187148;28;20220;-56
2022/06/02 10:28:29;;;;;;;2.50;2.50;;;18.70;1.00;;;;;;6184877;28;20244;-55
2022/06/02 10:32:08;;;;;;;3.30;3.10;;;18.60;1.00;;;;;;6176753;28;20777;-56
2022/06/02 10:35:40;;;;;;;2.43;2.43;;;18.30;1.00;;;;;;6177444;28;20236;-59
2022/06/02 10:38:54;;;;;;;2.60;2.50;;;18.50;1.00;;;;;;6175520;28;20579;-55
2022/06/02 10:42:15;;;;;;;2.53;2.43;;;18.20;1.00;;;;;;6177224;28;20238;-57
2022/06/02 10:45:56;;;;;;;4.50;2.60;;;18.20;1.00;;;;;;6181392;28;20323;-55
2022/06/02 10:49:25;;;;;;;2.27;2.27;;;18.40;1.00;;;;;;6160406;28;20639;-57
2022/06/02 10:53:05;;;;;;;2.77;2.57;;;18.60;1.00;;;;;;6174855;28;20278;-55
2022/06/02 10:56:37;;;;;;;2.20;2.10;;;18.80;1.00;;;;;;6186371;28;20580;-56
2022/06/02 11:00:00;;;;;;;3.30;2.10;;;18.80;1.00;;;;;;6160275;28;20236;-55
2022/06/02 11:03:41;;;;;;;2.50;2.17;;;18.80;1.00;;;;;;6182137;28;20315;-56
2022/06/02 11:07:13;;;;;;;2.50;2.40;;;18.70;1.00;;;;;;6188870;28;20296;-55
2022/06/02 11:10:30;;;;;;;2.70;2.60;;;18.60;1.00;;;;;;6180531;28;20232;-55
2022/06/02 11:14:08;;;;;;;2.10;2.10;;;18.60;1.00;;;;;;6186684;28;20249;-54
2022/06/02 11:17:48;;;;;;;2.17;2.17;;;18.70;1.00;;;;;;6177756;28;20243;-56
2022/06/02 11:21:32;;;;;;;2.67;2.57;;;18.60;1.00;;;;;;6190343;28;20295;-55
2022/06/02 11:25:20;;;;;;;2.40;2.27;;;18.90;1.00;;;;;;6190615;28;20284;-55
2022/06/02 11:28:49;;;;;;;2.17;2.10;;;19.30;1.00;;;;;;6185524;28;20646;-55
2022/06/02 11:32:27;;;;;;;2.43;2.33;;;19.70;1.00;;;;;;6200224;28;20236;-56
2022/06/02 11:36:02;;;;;;;2.20;2.10;;;19.60;1.00;;;;;;6182038;28;20780;-54
2022/06/02 11:39:40;;;;;;;2.03;2.03;;;19.90;1.00;;;;;;6179995;28;20733;-54
2022/06/02 11:42:57;;;;;;;2.20;2.10;;;20.10;1.00;;;;;;6188954;28;20287;-56
2022/06/02 11:46:33;;;;;;;1.97;1.87;;;20.40;1.00;;;;;;6201712;28;20232;-56
2022/06/02 11:49:54;;;;;;;3.10;2.00;;;20.40;1.00;;;;;;6193043;28;20334;-55
2022/06/02 11:53:25;;;;;;;1.80;1.80;;;20.20;1.00;;;;;;6188755;28;20651;-55
2022/06/02 11:56:44;;;;;;;1.83;1.83;;;20.20;1.00;;;;;;6178850;28;20351;-55
2022/06/02 12:00:09;;;;;;;2.07;1.90;;;20.20;1.00;;;;;;6193117;28;20323;-56
2022/06/02 12:03:34;;;;;;;1.60;1.60;;;20.20;1.00;;;;;;6188916;28;20252;-57
2022/06/02 12:07:05;;;;;;;2.20;2.10;;;20.10;1.00;;;;;;6189041;28;20240;-55
2022/06/02 12:10:32;;;;;;;1.70;1.70;;;20.10;1.00;;;;;;6186566;28;20240;-55
2022/06/02 12:13:56;;;;;;;2.10;1.90;;;20.10;1.00;;;;;;6193333;28;20698;-54
2022/06/02 12:17:14;;;;;;;2.03;1.93;;;19.90;1.00;;;;;;6180152;28;20236;-57
2022/06/02 12:20:56;;;;;;;1.70;1.70;;;19.70;1.00;;;;;;6181036;28;20315;-55
2022/06/02 12:24:17;;;;;;;1.97;1.87;;;19.70;1.00;;;;;;6132200;28;20309;-54
2022/06/02 12:27:54;;;;;;;2.00;1.90;;;20.00;1.00;;;;;;6188022;28;20263;-54
2022/06/02 12:31:45;;;;;;;6.53;2.07;;;20.20;1.00;;;;;;6176419;28;20263;-57
2022/06/02 12:35:16;;;;;;;1.70;1.70;;;20.20;1.00;;;;;;6084146;28;20236;-56
2022/06/02 12:38:46;;;;;;;1.73;1.70;;;20.10;1.00;;;;;;6187796;28;20322;-55
2022/06/02 12:42:22;;;;;;;2.20;2.10;;;20.40;1.00;;;;;;6190659;28;20274;-54
2022/06/02 12:45:44;;;;;;;2.00;1.90;;;20.50;1.00;;;;;;6183919;28;20258;-56
2022/06/02 12:49:20;;;;;;;2.20;2.10;;;20.50;1.00;;;;;;6191099;28;20239;-57
2022/06/02 12:53:04;;;;;;;2.50;2.40;;;20.60;1.00;;;;;;6152796;28;20228;-54
2022/06/02 12:56:28;;;;;;;1.67;1.67;;;20.60;1.00;;;;;;6184967;28;20220;-55
2022/06/02 13:00:01;;;;;;;2.00;2.00;;;20.60;1.00;;;;;;6192282;28;20720;-54
2022/06/02 13:03:46;;;;;;;1.70;1.60;;;20.50;1.00;;;;;;6188473;28;20227;-57
2022/06/02 13:07:31;;;;;;;1.97;1.97;;;20.40;1.00;;;;;;6185243;28;20689;-57
2022/06/02 13:11:07;;;;;;;2.33;2.17;;;20.10;1.00;;;;;;6198588;28;20783;-57
2022/06/02 13:14:45;;;;;;;1.83;1.83;;;20.00;1.00;;;;;;6179747;28;20725;-54
2022/06/02 13:18:10;;;;;;;2.30;2.27;;;19.90;1.00;;;;;;6184117;28;20244;-55
2022/06/02 13:21:44;;;;;;;1.90;1.90;;;20.10;1.00;;;;;;6175448;28;20307;-56
2022/06/02 13:25:28;;;;;;;2.27;2.07;;;20.30;1.00;;;;;;6190469;28;20240;-56
2022/06/02 13:29:02;;;;;;;2.33;2.23;;;20.20;1.00;;;;;;6183469;28;20715;-56
2022/06/02 13:32:29;;;;;;;2.10;2.00;;;20.10;1.00;;;;;;6184878;28;20711;-55
2022/06/02 13:35:55;;;;;;;2.63;2.40;;;20.10;1.00;;;;;;6180985;28;20356;-55
2022/06/02 13:39:40;;;;;;;2.37;2.27;;;20.20;1.00;;;;;;6178241;28;20440;-58
2022/06/02 13:43:28;;;;;;;2.43;2.33;;;20.30;1.00;;;;;;6153062;28;20259;-55
2022/06/02 13:47:04;;;;;;;2.10;2.10;;;20.50;1.00;;;;;;6109787;28;20272;-56
2022/06/02 13:50:58;;;;;;;1.97;1.87;;;20.80;1.00;;;;;;6187673;28;20734;-55
2022/06/02 13:58:15;;;;;;;2.10;2.00;;;21.10;1.00;;;;;;6092932;29;20417;-54
2022/06/02 14:01:35;;;;;;;3.17;2.40;;;20.60;1.00;;;;;;6106389;28;20551;-56
2022/06/02 14:05:01;;;;;;;2.97;2.20;;;20.20;1.00;;;;;;6186294;28;20713;-54
2022/06/02 14:08:32;;;;;;;3.00;2.00;;;19.80;1.00;;;;;;6191875;28;20236;-54
2022/06/02 14:11:49;;;;;;;2.40;2.30;;;19.90;1.00;;;;;;6184547;28;20270;-55
2022/06/02 14:15:12;;;;;;;2.27;2.07;;;20.00;1.00;;;;;;6200145;28;20428;-55
2022/06/02 14:18:50;;;;;;;2.17;2.10;;;20.10;1.00;;;;;;6200312;28;20307;-56
2022/06/02 14:22:04;;;;;;;2.37;2.27;;;20.20;1.00;;;;;;6180546;28;20649;-54
2022/06/02 14:25:14;;;;;;;2.43;2.00;;;20.30;1.00;;;;;;6189847;28;20584;-56
2022/06/02 14:28:34;;;;;;;1.80;1.80;;;20.40;1.00;;;;;;6182939;28;20395;-55
2022/06/02 14:31:50;;;;;;;2.47;2.27;;;20.50;1.00;;;;;;6193395;28;20241;-55
2022/06/02 14:35:25;;;;;;;4.93;2.30;;;20.40;1.00;;;;;;6184950;28;20241;-55
2022/06/02 14:38:52;;;;;;;3.20;2.07;;;20.30;1.00;;;;;;6182678;28;20433;-55
2022/06/02 14:42:21;;;;;;;2.10;2.00;;;20.30;1.00;;;;;;6189970;28;20299;-55
2022/06/02 14:45:31;;;;;;;3.70;2.17;;;20.20;1.00;;;;;;6184884;28;20371;-55
2022/06/02 14:48:59;;;;;;;1.90;1.80;;;20.20;1.00;;;;;;6182508;28;20264;-55
2022/06/02 14:52:21;;;;;;;1.70;1.70;;;20.40;1.00;;;;;;6176400;28;20666;-53
2022/06/02 14:55:30;;;;;;;2.03;1.90;;;20.50;1.00;;;;;;6185456;28;20452;-56
2022/06/02 14:58:44;;;;;;;2.07;2.00;;;20.50;1.00;;;;;;6177900;28;20355;-54
2022/06/02 15:01:56;;;;;;;2.30;2.20;;;20.40;1.00;;;;;;6182618;28;20263;-55
2022/06/02 15:05:22;;;;;;;2.10;2.00;;;20.10;1.00;;;;;;6193823;28;20412;-53
2022/06/02 15:09:00;;;;;;;2.07;2.07;;;20.20;1.00;;;;;;6198121;28;20255;-54
2022/06/02 15:12:46;;;;;;;2.10;2.10;;;20.20;1.00;;;;;;6171910;28;20242;-54
2022/06/02 15:16:07;;;;;;;1.90;1.90;;;20.20;1.00;;;;;;6073292;28;20804;-55
2022/06/02 15:19:30;;;;;;;1.80;1.80;;;20.40;1.00;;;;;;6093338;28;20242;-54
2022/06/02 15:23:38;;;;;;;1.67;1.67;;;20.80;1.00;;;;;;6196358;28;20266;-56
2022/06/02 15:27:01;;;;;;;2.03;2.00;;;21.10;1.00;;;;;;6190813;28;20246;-57
2022/06/02 15:30:24;;;;;;;1.90;1.80;;;21.00;1.00;;;;;;6189331;28;20327;-56
2022/06/02 15:34:08;;;;;;;1.60;1.60;;;20.70;1.00;;;;;;6196286;28;20348;-55
2022/06/02 15:37:50;;;;;;;2.00;1.90;;;20.60;1.00;;;;;;6176217;28;20699;-55
2022/06/02 15:41:30;;;;;;;1.90;1.90;;;20.60;1.00;;;;;;6198642;28;20235;-54
2022/06/02 15:44:58;;;;;;;1.73;1.73;;;20.40;1.00;;;;;;6187611;28;20743;-55
2022/06/02 15:48:38;;;;;;;1.70;1.70;;;20.30;1.00;;;;;;6198671;28;20313;-56
2022/06/02 15:52:00;;;;;;;2.20;2.10;;;20.20;1.00;;;;;;6195465;28;20483;-54
2022/06/02 15:55:36;;;;;;;1.67;1.67;;;20.00;1.00;;;;;;6177219;28;20318;-54
2022/06/02 15:59:04;;;;;;;1.83;1.83;;;19.80;1.00;;;;;;6153982;28;20254;-54
2022/06/02 16:02:48;;;;;;;1.80;1.70;;;19.90;1.00;;;;;;6188368;28;20898;-55
2022/06/02 16:06:19;;;;;;;1.90;1.90;;;19.90;1.00;;;;;;6185309;28;20246;-55
2022/06/02 16:14:11;;;;;;;1.90;1.90;;;20.00;1.00;;;;;;6185270;28;20220;-54
2022/06/02 16:17:42;;;;;;;1.70;1.70;;;19.90;1.00;;;;;;6186511;28;20319;-55
2022/06/02 16:21:24;;;;;;;2.33;1.80;;;20.00;1.00;;;;;;6187152;28;20484;-53
2022/06/02 16:25:01;;;;;;;5.47;4.90;;;20.10;1.00;;;;;;6193934;28;20918;-55
2022/06/02 16:28:50;;;;;;;2.60;2.40;;;20.10;1.00;;;;;;6184457;28;20249;-55
2022/06/02 16:32:09;;;;;;;2.20;2.10;;;20.10;1.00;;;;;;6176051;28;20291;-55
2022/06/02 16:35:29;;;;;;;2.03;2.00;;;20.10;1.00;;;;;;6185214;28;20800;-54
2022/06/02 16:38:50;;;;;;;2.23;2.17;;;20.20;1.00;;;;;;6179857;28;20336;-55
2022/06/02 16:42:16;;;;;;;2.10;2.10;;;20.00;1.00;;;;;;6182293;28;20259;-54
2022/06/02 16:45:41;;;;;;;1.90;1.90;;;20.00;1.00;;;;;;6191851;28;20318;-54
2022/06/02 16:49:13;;;;;;;3.80;2.13;;;20.00;1.00;;;;;;6194179;28;20322;-54
2022/06/02 16:52:36;;;;;;;2.23;2.23;;;20.00;1.00;;;;;;6179616;28;20282;-55
2022/06/02 16:55:52;;;;;;;1.90;1.90;;;20.00;1.00;;;;;;6196051;28;20231;-54
2022/06/02 16:59:20;;;;;;;2.00;2.00;;;20.00;1.00;;;;;;6193783;28;20378;-54
2022/06/02 17:02:41;;;;;;;2.00;2.00;;;20.00;1.00;;;;;;6191031;28;20232;-53
2022/06/02 17:06:07;;;;;;;2.27;2.20;;;19.90;1.00;;;;;;6166365;28;20297;-54
2022/06/02 17:09:38;;;;;;;2.33;2.33;;;19.60;1.00;;;;;;6166400;28;20494;-55
2022/06/02 17:12:49;;;;;;;2.37;2.30;;;19.60;1.00;;;;;;6183415;28;20326;-54
2022/06/02 17:16:31;;;;;;;2.37;2.33;;;19.60;1.00;;;;;;6168340;28;20643;-54
2022/06/02 17:20:01;;;;;;;2.00;2.00;;;19.50;1.00;;;;;;6138867;28;20233;-53
2022/06/02 17:23:36;;;;;;;2.20;2.20;;;19.40;1.00;;;;;;6171938;28;20311;-55
2022/06/02 17:27:03;;;;;;;2.27;2.27;;;19.30;1.00;;;;;;6174926;28;20244;-56
2022/06/02 17:30:16;;;;;;;2.13;2.03;;;19.10;1.00;;;;;;6181373;28;20311;-55
2022/06/02 17:33:28;;;;;;;2.00;2.00;;;19.00;1.00;;;;;;6178475;28;20863;-57
2022/06/02 17:36:42;;;;;;;2.20;2.20;;;18.80;1.00;;;;;;6180839;28;20576;-54
2022/06/02 17:40:03;;;;;;;2.07;2.07;;;18.70;1.00;;;;;;6191419;28;20617;-54
2022/06/02 17:43:26;;;;;;;2.40;2.30;;;18.60;1.00;;;;;;6178120;28;20236;-57
2022/06/02 17:47:04;;;;;;;2.80;2.70;;;18.50;1.00;;;;;;6199874;28;20289;-54
2022/06/02 17:50:38;;;;;;;2.23;2.23;;;18.40;1.00;;;;;;6183138;28;20788;-54
2022/06/02 17:53:56;;;;;;;2.10;2.10;;;18.30;1.00;;;;;;6184377;28;20545;-55
2022/06/02 17:57:18;;;;;;;2.20;2.20;;;18.20;1.00;;;;;;6175197;28;20276;-56
2022/06/02 18:00:34;;;;;;;2.20;2.10;;;18.10;1.00;;;;;;6196019;28;20277;-55
2022/06/02 18:03:51;;;;;;;2.20;2.10;;;18.10;1.00;;;;;;6186782;28;20241;-54
2022/06/02 18:07:33;;;;;;;2.40;2.40;;;18.00;1.00;;;;;;6167528;28;20251;-55
2022/06/02 18:10:53;;;;;;;2.17;2.17;;;18.00;1.00;;;;;;6097137;28;20719;-54